Impacts TAF Board
For situational awareness. Not to be used for flight planning purposes.
IDs:

KPDX - Portland Intl Arpt, OR, US

Issued at 1126 UTC 23 Mar 2019
Updated at 1223 UTC 23 Mar 2019
Potential Impact None Slight Moderate High
Time<<24/01Z 24/02Z 24/03Z 24/04Z 24/05Z 24/06Z 24/07Z 24/08Z 24/09Z 24/10Z 24/11Z 24/12Z 24/13Z>>
Type PRVL PRVL PRVL PRVL PRVL PRVL PRVL PRVL PRVL PRVL PRVL
VIS >6 >6 >6 >6 >6 >6 >6 >6 >6 >6 >6
CIG 50 50 50 50 50 50 50 50 50 50 50
Cover OVC OVC OVC BKN BKN BKN BKN BKN BKN BKN BKN
FltCat VFR VFR VFR VFR VFR VFR VFR VFR VFR VFR VFR
WX VCSH VCSH VCSH -- -- -- -- -- -- -- --
WDir 240 240 240 260 260 260 260 260 260 260 260
WSpd 4 4 4 3 3 3 3 3 3 3 3
WGst -- -- -- -- -- -- -- -- -- -- --
Raw TAF
KPDX 231126Z 2312/2412 13004KT P6SM VCSH SCT007 SCT015 SCT040
  TEMPO 2312/2316 OVC007
  FM231600 11004KT P6SM OVC050
  FM232200 24004KT P6SM VCSH OVC050
  FM240400 26003KT P6SM BKN050


METAR Board
Radar Display
Forecast Discussion
For situational awareness. Not to be used for flight planning purposes.